Time,TemperatureF,DewpointF,PressureIn,WindDirection,WindDirectionDegrees,WindSpeedMPH,WindSpeedGustMPH,Humidity,HourlyPrecipIn,Conditions,Clouds,dailyrainin,SoftwareType,DateUTC
2013-05-23 00:02:00,51.1,50.0,29.92,SW,227,0.0,0.0,96,0.00,,,0.16,weatherlink.com 1.10,2013-05-23 04:02:00,
2013-05-23 01:14:00,50.0,49.0,29.90,SW,227,0.0,0.0,96,0.00,,,0.00,weatherlink.com 1.10,2013-05-23 05:14:00,
2013-05-23 01:18:00,50.0,49.0,29.90,SW,227,0.0,0.0,97,0.00,,,0.00,weatherlink.com 1.10,2013-05-23 05:18:00,
2013-05-23 01:33:00,50.1,49.0,29.91,SW,227,0.0,0.0,97,0.00,,,0.00,weatherlink.com 1.10,2013-05-23 05:33:00,
2013-05-23 01:48:00,49.9,49.0,29.91,SW,227,0.0,0.0,97,0.00,,,0.00,weatherlink.com 1.10,2013-05-23 05:48:00,
2013-05-23 02:03:00,49.9,49.0,29.89,SW,227,0.0,0.0,97,0.00,,,0.00,weatherlink.com 1.10,2013-05-23 06:03:00,
2013-05-23 02:18:00,49.8,49.0,29.88,SW,227,0.0,0.0,97,0.00,,,0.00,weatherlink.com 1.10,2013-05-23 06:18:00,
2013-05-23 02:33:00,49.7,49.0,29.87,SW,227,0.0,0.0,97,0.00,,,0.00,weatherlink.com 1.10,2013-05-23 06:33:00,
2013-05-23 02:48:00,49.6,49.0,29.87,SW,227,0.0,0.0,97,0.00,,,0.00,weatherlink.com 1.10,2013-05-23 06:48:00,
2013-05-23 03:03:00,49.5,49.0,29.88,SW,227,0.0,0.0,97,0.00,,,0.00,weatherlink.com 1.10,2013-05-23 07:03:00,
2013-05-23 03:19:00,49.5,49.0,29.87,SW,227,0.0,0.0,97,0.00,,,0.00,weatherlink.com 1.10,2013-05-23 07:19:00,
2013-05-23 03:34:00,49.5,49.0,29.87,SW,227,0.0,0.0,97,0.00,,,0.00,weatherlink.com 1.10,2013-05-23 07:34:00,
2013-05-23 03:49:00,49.5,49.0,29.87,SW,227,0.0,0.0,97,0.00,,,0.00,weatherlink.com 1.10,2013-05-23 07:49:00,
2013-05-23 04:04:00,49.4,49.0,29.87,SW,228,0.0,0.0,97,0.00,,,0.00,weatherlink.com 1.10,2013-05-23 08:04:00,
2013-05-23 04:19:00,49.4,49.0,29.86,SW,227,0.0,0.0,97,0.00,,,0.00,weatherlink.com 1.10,2013-05-23 08:19:00,
2013-05-23 04:34:00,49.5,49.0,29.86,SW,227,0.0,0.0,97,0.00,,,0.00,weatherlink.com 1.10,2013-05-23 08:34:00,
2013-05-23 04:49:00,49.4,49.0,29.86,SW,227,0.0,0.0,97,0.00,,,0.00,weatherlink.com 1.10,2013-05-23 08:49:00,
2013-05-23 05:04:00,49.5,49.0,29.86,SW,227,0.0,0.0,97,0.00,,,0.00,weatherlink.com 1.10,2013-05-23 09:04:00,
2013-05-23 05:19:00,49.5,49.0,29.87,SW,227,0.0,0.0,97,0.00,,,0.00,weatherlink.com 1.10,2013-05-23 09:19:00,
2013-05-23 05:34:00,49.5,49.0,29.87,SW,227,0.0,0.0,97,0.00,,,0.00,weatherlink.com 1.10,2013-05-23 09:34:00,
2013-05-23 05:49:00,49.4,49.0,29.87,SW,227,0.0,0.0,97,0.00,,,0.00,weatherlink.com 1.10,2013-05-23 09:49:00,
2013-05-23 06:04:00,49.6,49.0,29.87,SW,227,0.0,0.0,97,0.01,,,0.01,weatherlink.com 1.10,2013-05-23 10:04:00,
2013-05-23 06:19:00,49.7,49.0,29.87,SW,227,0.0,0.0,97,0.01,,,0.01,weatherlink.com 1.10,2013-05-23 10:19:00,
2013-05-23 06:34:00,49.8,49.0,29.88,SW,227,0.0,0.0,98,0.01,,,0.01,weatherlink.com 1.10,2013-05-23 10:34:00,
2013-05-23 06:49:00,50.0,50.0,29.88,SW,227,0.0,0.0,98,0.01,,,0.01,weatherlink.com 1.10,2013-05-23 10:49:00,
2013-05-23 07:04:00,50.2,50.0,29.88,SW,227,0.0,0.0,98,0.00,,,0.01,weatherlink.com 1.10,2013-05-23 11:04:00,
2013-05-23 07:19:00,50.5,50.0,29.88,SW,227,0.0,0.0,98,0.00,,,0.01,weatherlink.com 1.10,2013-05-23 11:19:00,
2013-05-23 07:34:00,50.9,50.0,29.88,SW,227,0.0,0.0,98,0.00,,,0.01,weatherlink.com 1.10,2013-05-23 11:34:00,
2013-05-23 07:49:00,51.3,51.0,29.88,SW,227,0.0,0.0,98,0.00,,,0.01,weatherlink.com 1.10,2013-05-23 11:49:00,
2013-05-23 08:04:00,51.8,51.0,29.88,SW,227,0.0,0.0,98,0.00,,,0.01,weatherlink.com 1.10,2013-05-23 12:04:00,
2013-05-23 08:19:00,52.2,52.0,29.88,SW,227,0.0,0.0,98,0.00,,,0.01,weatherlink.com 1.10,2013-05-23 12:19:00,
2013-05-23 08:34:00,52.5,52.0,29.88,SW,227,0.0,0.0,97,0.00,,,0.01,weatherlink.com 1.10,2013-05-23 12:34:00,
2013-05-23 08:49:00,53.1,52.0,29.87,SW,227,0.0,0.0,97,0.00,,,0.01,weatherlink.com 1.10,2013-05-23 12:49:00,
2013-05-23 09:04:00,53.8,53.0,29.86,NE,34,0.0,1.0,96,0.00,,,0.01,weatherlink.com 1.10,2013-05-23 13:04:00,
2013-05-23 09:19:00,54.5,53.0,29.86,SW,223,0.0,3.0,95,0.00,,,0.01,weatherlink.com 1.10,2013-05-23 13:19:00,
2013-05-23 09:34:00,55.2,54.0,29.85,SSW,210,0.0,0.0,94,0.00,,,0.01,weatherlink.com 1.10,2013-05-23 13:34:00,
2013-05-23 09:49:00,55.9,54.0,29.85,WNW,296,0.0,1.0,94,0.00,,,0.01,weatherlink.com 1.10,2013-05-23 13:49:00,
2013-05-23 10:04:00,56.8,55.0,29.85,West,281,1.0,1.0,93,0.00,,,0.01,weatherlink.com 1.10,2013-05-23 14:04:00,
2013-05-23 10:19:00,58.0,56.0,29.84,NNE,17,0.0,4.0,92,0.00,,,0.01,weatherlink.com 1.10,2013-05-23 14:19:00,
2013-05-23 10:34:00,58.6,56.0,29.84,NNE,17,0.0,0.0,92,0.00,,,0.01,weatherlink.com 1.10,2013-05-23 14:34:00,
2013-05-23 10:49:00,59.9,58.0,29.84,West,274,0.0,3.0,92,0.00,,,0.01,weatherlink.com 1.10,2013-05-23 14:49:00,
2013-05-23 11:04:00,61.5,59.0,29.83,NNW,338,0.0,1.0,90,0.00,,,0.01,weatherlink.com 1.10,2013-05-23 15:04:00,
2013-05-23 11:19:00,62.6,58.0,29.83,NE,34,0.0,3.0,86,0.00,,,0.01,weatherlink.com 1.10,2013-05-23 15:19:00,
2013-05-23 11:34:00,63.2,59.0,29.82,NNE,22,0.0,7.0,86,0.00,,,0.01,weatherlink.com 1.10,2013-05-23 15:34:00,
2013-05-23 11:49:00,64.7,61.0,29.82,SW,221,0.0,3.0,87,0.00,,,0.01,weatherlink.com 1.10,2013-05-23 15:49:00,
2013-05-23 12:05:00,67.7,63.0,29.82,SW,215,4.0,8.0,84,0.00,,,0.01,weatherlink.com 1.10,2013-05-23 16:05:00,
2013-05-23 12:20:00,68.0,62.0,29.81,SE,145,0.0,7.0,82,0.00,,,0.01,weatherlink.com 1.10,2013-05-23 16:20:00,
2013-05-23 12:35:00,68.3,62.0,29.81,South,181,1.0,7.0,79,0.00,,,0.01,weatherlink.com 1.10,2013-05-23 16:35:00,
2013-05-23 12:50:00,68.9,62.0,29.80,SW,229,0.0,5.0,79,0.00,,,0.01,weatherlink.com 1.10,2013-05-23 16:50:00,
2013-05-23 13:20:00,69.9,63.0,29.79,SW,231,3.0,5.0,79,0.00,,,0.01,weatherlink.com 1.10,2013-05-23 17:20:00,
2013-05-23 13:35:00,69.8,62.0,29.79,SSW,204,1.0,9.0,77,0.00,,,0.01,weatherlink.com 1.10,2013-05-23 17:35:00,
2013-05-23 13:50:00,69.7,63.0,29.79,SSE,157,0.0,5.0,78,0.00,,,0.01,weatherlink.com 1.10,2013-05-23 17:50:00,
2013-05-23 14:05:00,70.4,64.0,29.78,NW,316,0.0,3.0,80,0.00,,,0.01,weatherlink.com 1.10,2013-05-23 18:05:00,
2013-05-23 14:20:00,70.1,63.0,29.79,West,273,2.0,5.0,79,0.00,,,0.01,weatherlink.com 1.10,2013-05-23 18:20:00,
2013-05-23 14:35:00,70.6,63.0,29.78,SSW,196,0.0,8.0,78,0.00,,,0.01,weatherlink.com 1.10,2013-05-23 18:35:00,
2013-05-23 14:50:00,70.3,64.0,29.77,SSW,200,1.0,5.0,79,0.00,,,0.01,weatherlink.com 1.10,2013-05-23 18:50:00,
2013-05-23 15:05:00,70.5,64.0,29.77,SSW,207,0.0,5.0,79,0.00,,,0.01,weatherlink.com 1.10,2013-05-23 19:05:00,
2013-05-23 15:20:00,70.7,64.0,29.77,SW,219,0.0,3.0,79,0.00,,,0.01,weatherlink.com 1.10,2013-05-23 19:20:00,
2013-05-23 15:35:00,70.4,64.0,29.77,SSW,199,3.0,4.0,80,0.00,,,0.01,weatherlink.com 1.10,2013-05-23 19:35:00,
2013-05-23 15:50:00,69.8,64.0,29.78,West,270,1.0,6.0,82,0.00,,,0.01,weatherlink.com 1.10,2013-05-23 19:50:00,
2013-05-23 16:05:00,69.6,64.0,29.77,WSW,256,1.0,4.0,82,0.00,,,0.01,weatherlink.com 1.10,2013-05-23 20:05:00,
2013-05-23 16:20:00,69.2,65.0,29.78,SW,219,0.0,3.0,86,0.00,,,0.01,weatherlink.com 1.10,2013-05-23 20:20:00,
2013-05-23 16:35:00,68.3,65.0,29.78,SSW,207,0.0,3.0,89,0.02,,,0.03,weatherlink.com 1.10,2013-05-23 20:35:00,
2013-05-23 16:50:00,67.3,65.0,29.78,WSW,257,0.0,3.0,91,0.04,,,0.05,weatherlink.com 1.10,2013-05-23 20:50:00,
2013-05-23 17:05:00,66.8,65.0,29.78,WSW,255,0.0,0.0,93,0.05,,,0.06,weatherlink.com 1.10,2013-05-23 21:05:00,
2013-05-23 17:20:00,66.8,65.0,29.77,WSW,255,0.0,0.0,94,0.06,,,0.07,weatherlink.com 1.10,2013-05-23 21:20:00,
2013-05-23 17:35:00,66.7,65.0,29.76,NE,55,0.0,2.0,94,0.05,,,0.08,weatherlink.com 1.10,2013-05-23 21:35:00,
2013-05-23 17:50:00,66.3,65.0,29.76,NE,54,0.0,0.0,94,0.04,,,0.09,weatherlink.com 1.10,2013-05-23 21:50:00,
2013-05-23 18:05:00,65.8,64.0,29.77,NE,54,0.0,0.0,95,0.03,,,0.09,weatherlink.com 1.10,2013-05-23 22:05:00,
2013-05-23 18:20:00,65.8,65.0,29.77,NE,54,0.0,0.0,96,0.02,,,0.09,weatherlink.com 1.10,2013-05-23 22:20:00,
2013-05-23 18:35:00,65.8,64.0,29.76,North,355,0.0,0.0,95,0.01,,,0.09,weatherlink.com 1.10,2013-05-23 22:35:00,
2013-05-23 18:50:00,65.8,64.0,29.76,North,355,0.0,0.0,95,0.00,,,0.09,weatherlink.com 1.10,2013-05-23 22:50:00,
2013-05-23 19:05:00,66.1,65.0,29.76,North,355,0.0,0.0,95,0.00,,,0.09,weatherlink.com 1.10,2013-05-23 23:05:00,
2013-05-23 19:20:00,66.2,65.0,29.76,North,355,0.0,0.0,95,0.00,,,0.09,weatherlink.com 1.10,2013-05-23 23:20:00,
2013-05-23 19:35:00,66.4,65.0,29.76,WNW,301,0.0,1.0,96,0.00,,,0.09,weatherlink.com 1.10,2013-05-23 23:35:00,
2013-05-23 19:50:00,66.8,65.0,29.76,SW,216,1.0,7.0,94,0.00,,,0.09,weatherlink.com 1.10,2013-05-23 23:50:00,
2013-05-23 20:05:00,67.4,65.0,29.76,SW,233,0.0,3.0,93,0.00,,,0.09,weatherlink.com 1.10,2013-05-24 00:05:00,
2013-05-23 20:20:00,67.5,66.0,29.76,SW,221,0.0,8.0,93,0.00,,,0.09,weatherlink.com 1.10,2013-05-24 00:20:00,
2013-05-23 20:35:00,67.6,65.0,29.75,SSW,199,0.0,3.0,92,0.00,,,0.09,weatherlink.com 1.10,2013-05-24 00:35:00,
2013-05-23 20:50:00,67.4,65.0,29.75,SW,215,0.0,3.0,92,0.00,,,0.09,weatherlink.com 1.10,2013-05-24 00:50:00,
2013-05-23 21:05:00,67.4,65.0,29.75,South,177,0.0,5.0,92,0.00,,,0.09,weatherlink.com 1.10,2013-05-24 01:05:00,
2013-05-23 21:20:00,67.3,65.0,29.75,WSW,239,2.0,7.0,91,0.00,,,0.09,weatherlink.com 1.10,2013-05-24 01:20:00,
2013-05-23 21:35:00,67.1,65.0,29.75,WSW,255,0.0,1.0,91,0.00,,,0.09,weatherlink.com 1.10,2013-05-24 01:35:00,
2013-05-23 21:50:00,67.0,64.0,29.75,SSE,147,0.0,7.0,91,0.00,,,0.09,weatherlink.com 1.10,2013-05-24 01:50:00,
2013-05-23 22:05:00,66.8,64.0,29.75,SW,215,0.0,2.0,91,0.00,,,0.09,weatherlink.com 1.10,2013-05-24 02:05:00,
2013-05-23 22:20:00,66.6,64.0,29.74,SW,217,0.0,3.0,91,0.00,,,0.09,weatherlink.com 1.10,2013-05-24 02:20:00,
2013-05-23 22:35:00,66.7,64.0,29.75,SW,217,0.0,5.0,90,0.00,,,0.09,weatherlink.com 1.10,2013-05-24 02:35:00,
2013-05-23 22:50:00,66.7,64.0,29.75,SSW,200,1.0,5.0,90,0.00,,,0.09,weatherlink.com 1.10,2013-05-24 02:50:00,
2013-05-23 23:05:00,66.5,64.0,29.74,SSW,209,0.0,3.0,90,0.00,,,0.09,weatherlink.com 1.10,2013-05-24 03:05:00,
2013-05-23 23:20:00,66.2,64.0,29.75,SSW,213,1.0,5.0,91,0.00,,,0.09,weatherlink.com 1.10,2013-05-24 03:20:00,
2013-05-23 23:35:00,66.1,64.0,29.74,SSW,196,0.0,6.0,91,0.00,,,0.09,weatherlink.com 1.10,2013-05-24 03:35:00,
2013-05-23 23:50:00,66.1,64.0,29.74,SSE,164,0.0,1.0,91,0.01,,,0.10,weatherlink.com 1.10,2013-05-24 03:50:00,